createdAt,value
2018-09-12T00:01:42.712Z,3.23
2018-09-12T00:04:14.091Z,2.67
2018-09-12T00:06:42.714Z,3.40
2018-09-12T00:09:12.559Z,4.17
2018-09-12T00:11:41.299Z,3.37
2018-09-12T00:14:10.171Z,4.00
2018-09-12T00:16:38.761Z,3.33
2018-09-12T00:19:07.707Z,2.93
2018-09-12T00:21:36.707Z,3.13
2018-09-12T00:24:05.280Z,3.00
2018-09-12T00:26:33.854Z,3.60
2018-09-12T00:29:02.447Z,3.07
2018-09-12T00:31:31.058Z,3.30
2018-09-12T00:33:59.596Z,3.93
2018-09-12T00:36:28.143Z,4.17
2018-09-12T00:38:56.740Z,3.30
2018-09-12T00:41:25.358Z,3.03
2018-09-12T00:43:54.016Z,4.27
2018-09-12T00:46:22.650Z,4.37
2018-09-12T00:48:51.306Z,3.40
2018-09-12T00:51:19.906Z,3.67
2018-09-12T00:53:48.508Z,3.27
2018-09-12T00:56:17.075Z,4.00
2018-09-12T00:58:45.591Z,3.50
2018-09-12T01:01:14.111Z,4.10
2018-09-12T01:03:42.613Z,4.17
2018-09-12T01:06:11.215Z,4.13
2018-09-12T01:08:40.213Z,3.30
2018-09-12T01:11:08.978Z,3.00
2018-09-12T01:13:37.534Z,4.00
2018-09-12T01:16:06.194Z,4.73
2018-09-12T01:18:34.772Z,3.90
2018-09-12T01:21:03.329Z,3.33
2018-09-12T01:23:32.568Z,3.10
2018-09-12T01:26:01.159Z,3.73
2018-09-12T01:28:29.803Z,4.10
2018-09-12T01:30:58.474Z,4.20
2018-09-12T01:33:27.011Z,5.67
2018-09-12T01:35:55.605Z,3.97
2018-09-12T01:38:24.860Z,4.83
2018-09-12T01:40:53.487Z,4.87
2018-09-12T01:43:22.112Z,4.10
2018-09-12T01:45:50.693Z,5.03
2018-09-12T01:48:19.302Z,5.07
2018-09-12T01:50:47.857Z,5.33
2018-09-12T01:53:16.488Z,4.33
2018-09-12T01:55:45.103Z,4.70
2018-09-12T01:58:13.737Z,4.30
2018-09-12T02:00:43.561Z,4.13
2018-09-12T02:03:12.147Z,5.00
2018-09-12T02:05:40.725Z,4.43
2018-09-12T02:08:09.287Z,4.07
2018-09-12T02:10:37.929Z,5.63
2018-09-12T02:13:07.602Z,5.73
2018-09-12T02:15:36.359Z,5.60
2018-09-12T02:18:05.171Z,5.17
2018-09-12T02:20:33.782Z,4.77
2018-09-12T02:23:02.337Z,5.30
2018-09-12T02:25:30.954Z,3.97
2018-09-12T02:27:59.596Z,3.93
2018-09-12T02:30:28.729Z,5.50
2018-09-12T02:32:57.317Z,4.40
2018-09-12T02:35:25.982Z,4.67
2018-09-12T02:37:54.495Z,4.67
2018-09-12T02:40:23.057Z,4.53
2018-09-12T02:42:51.754Z,5.37
2018-09-12T02:45:20.330Z,4.30
2018-09-12T02:47:48.971Z,5.93
2018-09-12T02:50:17.581Z,4.90
2018-09-12T02:52:46.159Z,5.07
2018-09-12T02:55:14.735Z,4.83
2018-09-12T02:57:43.344Z,6.13
2018-09-12T03:00:11.868Z,5.10
2018-09-12T03:02:40.517Z,5.60
2018-09-12T03:05:09.076Z,5.97
2018-09-12T03:07:37.611Z,6.23
2018-09-12T03:10:07.096Z,5.20
2018-09-12T03:12:35.701Z,6.40
2018-09-12T03:15:04.321Z,6.43
2018-09-12T03:17:32.972Z,6.17
2018-09-12T03:20:01.642Z,6.20
2018-09-12T03:22:30.186Z,7.30
2018-09-12T03:24:58.798Z,6.80
2018-09-12T03:27:27.437Z,7.13
2018-09-12T03:29:56.035Z,6.47
2018-09-12T03:32:25.211Z,5.60
2018-09-12T03:34:54.390Z,6.73
2018-09-12T03:37:23.634Z,7.30
2018-09-12T03:39:52.275Z,5.67
2018-09-12T03:42:27.616Z,6.23
2018-09-12T03:44:56.258Z,5.73
2018-09-12T03:47:24.889Z,6.27
2018-09-12T03:49:53.497Z,5.67
2018-09-12T03:52:22.076Z,7.77
2018-09-12T03:54:50.648Z,7.50
2018-09-12T03:57:19.201Z,6.53
2018-09-12T03:59:48.634Z,6.77
2018-09-12T04:02:17.216Z,6.40
2018-09-12T04:04:45.832Z,6.37
2018-09-12T04:07:14.506Z,6.53
2018-09-12T04:09:43.178Z,5.67
2018-09-12T04:12:11.802Z,6.60
2018-09-12T04:14:40.459Z,6.50
2018-09-12T04:17:09.132Z,7.10
2018-09-12T04:19:37.933Z,6.20
2018-09-12T04:22:06.635Z,7.50
2018-09-12T04:24:35.287Z,6.53
2018-09-12T04:27:03.904Z,7.27
2018-09-12T04:29:32.506Z,7.00
2018-09-12T04:32:01.091Z,6.80
2018-09-12T04:34:29.714Z,8.20
2018-09-12T04:36:58.291Z,6.60
2018-09-12T04:39:26.870Z,7.30
2018-09-12T04:41:55.465Z,7.50
2018-09-12T04:44:24.146Z,7.80
2018-09-12T04:46:52.961Z,7.70
2018-09-12T04:49:21.688Z,8.43
2018-09-12T04:51:50.538Z,8.07
2018-09-12T04:54:19.139Z,7.13
2018-09-12T04:56:47.809Z,7.87
2018-09-12T04:59:16.370Z,7.00
2018-09-12T05:01:45.058Z,7.43
2018-09-12T05:04:13.664Z,7.73
2018-09-12T05:06:42.197Z,7.97
2018-09-12T05:09:11.953Z,7.83
2018-09-12T05:11:40.717Z,7.80
2018-09-12T05:14:09.380Z,8.37
2018-09-12T05:16:38.109Z,8.60
2018-09-12T05:19:06.669Z,11.50
2018-09-12T05:21:35.282Z,12.00
2018-09-12T05:24:03.861Z,10.97
2018-09-12T05:26:32.518Z,11.57
2018-09-12T05:29:01.154Z,11.63
2018-09-12T05:31:29.845Z,11.43
2018-09-12T05:33:58.577Z,12.10
2018-09-12T05:36:27.257Z,10.70
2018-09-12T05:38:55.873Z,11.90
2018-09-12T05:41:24.531Z,10.37
2018-09-12T05:43:53.283Z,12.10
2018-09-12T05:46:22.062Z,12.37
2018-09-12T05:48:51.074Z,11.33
2018-09-12T05:51:19.653Z,12.20
2018-09-12T05:53:48.402Z,10.93
2018-09-12T05:56:17.064Z,10.47
2018-09-12T05:58:45.670Z,10.57
2018-09-12T06:01:14.449Z,11.30
2018-09-12T06:03:43.498Z,11.17
2018-09-12T06:06:12.090Z,12.50
2018-09-12T06:08:40.706Z,12.00
2018-09-12T06:11:09.304Z,11.00
2018-09-12T06:13:38.090Z,10.67
2018-09-12T06:16:06.787Z,11.20
2018-09-12T06:18:35.744Z,12.30
2018-09-12T06:21:04.446Z,12.83
2018-09-12T06:23:33.059Z,11.30
2018-09-12T06:26:01.667Z,13.30
2018-09-12T06:28:30.698Z,10.60
2018-09-12T06:30:59.445Z,12.30
2018-09-12T06:33:28.077Z,12.17
2018-09-12T06:35:56.666Z,13.23
2018-09-12T06:38:25.352Z,12.97
2018-09-12T06:40:53.887Z,12.27
2018-09-12T06:43:22.509Z,11.47
2018-09-12T06:45:51.167Z,14.30
2018-09-12T06:48:19.805Z,13.93
2018-09-12T06:50:48.398Z,13.57
2018-09-12T06:53:16.996Z,16.20
2018-09-12T06:55:45.669Z,12.70
2018-09-12T06:58:14.331Z,14.33
2018-09-12T07:00:43.079Z,14.67
2018-09-12T07:03:11.859Z,14.33
2018-09-12T07:05:40.735Z,14.60
2018-09-12T07:08:09.380Z,14.53
2018-09-12T07:10:38.191Z,14.13
2018-09-12T07:13:07.419Z,14.47
2018-09-12T07:15:36.061Z,15.47
2018-09-12T07:18:04.869Z,15.13
2018-09-12T07:20:33.448Z,14.57
2018-09-12T07:23:02.078Z,15.40
2018-09-12T07:25:30.823Z,14.03
2018-09-12T07:27:59.444Z,14.90
2018-09-12T07:30:28.176Z,15.33
2018-09-12T07:32:56.804Z,13.63
2018-09-12T07:35:25.867Z,13.37
2018-09-12T07:37:54.483Z,13.17
2018-09-12T07:40:23.193Z,11.50
2018-09-12T07:42:51.775Z,12.97
2018-09-12T07:45:20.368Z,11.80
2018-09-12T07:47:48.965Z,10.73
2018-09-12T07:50:17.624Z,11.53
2018-09-12T07:52:46.172Z,10.80
2018-09-12T07:55:14.864Z,13.20
2018-09-12T07:57:43.560Z,11.80
2018-09-12T08:00:12.272Z,10.00
2018-09-12T08:02:40.968Z,11.73
2018-09-12T08:05:09.654Z,9.43
2018-09-12T08:07:38.372Z,10.13
2018-09-12T08:10:09.001Z,10.03
2018-09-12T08:12:37.723Z,9.63
2018-09-12T08:15:06.410Z,9.90
2018-09-12T08:17:35.147Z,8.90
2018-09-12T08:20:03.920Z,9.70
2018-09-12T08:22:32.564Z,8.43
2018-09-12T08:25:01.254Z,9.30
2018-09-12T08:27:29.819Z,9.17
2018-09-12T08:29:58.576Z,9.70
2018-09-12T08:32:27.410Z,9.70
2018-09-12T08:34:56.017Z,9.20
2018-09-12T08:37:24.657Z,7.63
2018-09-12T08:39:53.272Z,7.17
2018-09-12T08:42:22.073Z,8.50
2018-09-12T08:44:50.633Z,8.37
2018-09-12T08:47:19.306Z,9.20
2018-09-12T08:49:47.947Z,9.03
2018-09-12T08:52:16.626Z,8.20
2018-09-12T08:54:45.298Z,6.90
2018-09-12T08:57:13.971Z,7.87
2018-09-12T08:59:42.643Z,8.30
2018-09-12T09:02:11.347Z,9.00
2018-09-12T09:04:39.967Z,7.90
2018-09-12T09:07:08.700Z,7.23
2018-09-12T09:09:37.302Z,8.50
2018-09-12T09:12:06.530Z,7.60
2018-09-12T09:14:35.171Z,7.60
2018-09-12T09:17:03.813Z,6.40
2018-09-12T09:19:32.474Z,7.33
2018-09-12T09:22:01.963Z,7.73
2018-09-12T09:24:30.910Z,7.57
2018-09-12T09:26:59.591Z,6.70
2018-09-12T09:29:28.329Z,7.70
2018-09-12T09:31:56.885Z,7.73
2018-09-12T09:34:25.499Z,7.93
2018-09-12T09:36:54.109Z,7.03
2018-09-12T09:39:22.798Z,8.73
2018-09-12T09:41:51.344Z,8.13
2018-09-12T09:44:20.060Z,7.63
2018-09-12T09:46:48.794Z,6.97
2018-09-12T09:49:17.615Z,7.57
2018-09-12T09:51:46.212Z,8.83
2018-09-12T09:54:14.967Z,8.00
2018-09-12T09:56:43.664Z,8.27
2018-09-12T09:59:12.377Z,8.40
2018-09-12T10:01:46.253Z,7.73
2018-09-12T10:04:28.363Z,9.47
2018-09-12T10:06:59.496Z,8.63
2018-09-12T10:09:32.298Z,8.50
2018-09-12T10:12:02.063Z,7.80
2018-09-12T10:14:32.401Z,8.33
2018-09-12T10:17:01.086Z,11.43
2018-09-12T10:19:29.796Z,9.73
2018-09-12T10:21:58.491Z,9.33
2018-09-12T10:24:27.528Z,8.43
2018-09-12T10:26:56.115Z,7.37
2018-09-12T10:29:24.821Z,8.20
2018-09-12T10:31:53.677Z,8.20
2018-09-12T10:34:22.321Z,6.10
2018-09-12T10:36:51.529Z,4.60
2018-09-12T10:39:20.256Z,4.37
2018-09-12T10:41:49.193Z,4.20
2018-09-12T10:44:17.970Z,5.10
2018-09-12T10:46:46.574Z,4.63
2018-09-12T10:49:15.354Z,4.03
2018-09-12T10:51:44.050Z,4.17
2018-09-12T10:54:12.672Z,4.03
2018-09-12T10:56:41.384Z,3.83
2018-09-12T10:59:10.112Z,3.70
2018-09-12T11:01:38.799Z,3.87
2018-09-12T11:04:07.803Z,3.37
2018-09-12T11:06:36.540Z,3.83
2018-09-12T11:09:08.879Z,3.77
2018-09-12T11:11:37.897Z,3.07
2018-09-12T11:14:06.572Z,3.03
2018-09-12T11:16:35.314Z,3.10
2018-09-12T11:19:04.261Z,2.80
2018-09-12T11:21:32.927Z,2.70
2018-09-12T11:24:02.249Z,3.20
2018-09-12T11:26:31.289Z,2.77
2018-09-12T11:28:59.975Z,3.50
2018-09-12T11:31:28.989Z,3.00
2018-09-12T11:33:57.521Z,2.50
2018-09-12T11:36:26.416Z,2.73
2018-09-12T11:38:55.300Z,3.67
2018-09-12T11:41:24.319Z,3.73
2018-09-12T11:43:53.235Z,2.23
2018-09-12T11:46:21.859Z,2.70
2018-09-12T11:48:50.518Z,1.30
2018-09-12T11:51:19.130Z,1.60
2018-09-12T11:53:47.809Z,1.50
2018-09-12T11:56:16.471Z,2.53
2018-09-12T11:58:45.042Z,1.90
2018-09-12T12:01:13.654Z,1.93
2018-09-12T12:03:42.272Z,2.40
2018-09-12T12:06:10.924Z,2.20
2018-09-12T12:08:39.435Z,2.83
2018-09-12T12:11:08.074Z,2.47
2018-09-12T12:13:36.646Z,2.40
2018-09-12T12:16:05.316Z,2.30
2018-09-12T12:18:34.002Z,2.43
2018-09-12T12:21:02.676Z,2.33
2018-09-12T12:23:31.429Z,2.10
2018-09-12T12:26:00.345Z,3.10
2018-09-12T12:28:29.011Z,2.50
2018-09-12T12:30:57.602Z,4.40
2018-09-12T12:33:26.186Z,4.20
2018-09-12T12:35:54.860Z,3.33
2018-09-12T12:38:23.570Z,5.10
2018-09-12T12:40:52.867Z,4.77
2018-09-12T12:43:21.534Z,4.77
2018-09-12T12:45:50.203Z,5.37
2018-09-12T12:48:18.865Z,5.83
2018-09-12T12:50:47.537Z,5.37
2018-09-12T12:53:16.141Z,5.13
2018-09-12T12:55:44.729Z,5.80
2018-09-12T12:58:13.351Z,6.17
2018-09-12T13:00:42.053Z,6.30
2018-09-12T13:03:10.652Z,7.30
2018-09-12T13:05:39.200Z,6.37
2018-09-12T13:08:07.925Z,6.77
2018-09-12T13:10:36.718Z,7.13
2018-09-12T13:13:06.205Z,6.83
2018-09-12T13:15:34.812Z,5.60
2018-09-12T13:18:03.625Z,6.70
2018-09-12T13:20:32.291Z,6.50
2018-09-12T13:23:01.913Z,5.73
2018-09-12T13:25:30.559Z,5.67
2018-09-12T13:27:59.298Z,4.90
2018-09-12T13:30:28.467Z,6.20
2018-09-12T13:32:57.274Z,5.27
2018-09-12T13:35:26.231Z,4.97
2018-09-12T13:37:54.894Z,4.50
2018-09-12T13:40:23.845Z,5.20
2018-09-12T13:42:52.821Z,5.77
2018-09-12T13:45:21.671Z,5.90
2018-09-12T13:47:51.223Z,7.03
2018-09-12T13:50:19.887Z,6.50
2018-09-12T13:52:48.927Z,5.90
2018-09-12T13:55:17.805Z,5.70
2018-09-12T13:57:46.481Z,6.47
2018-09-12T14:00:15.153Z,6.20
2018-09-12T14:02:43.885Z,6.37
2018-09-12T14:05:13.219Z,6.73
2018-09-12T14:07:41.974Z,7.70
2018-09-12T14:10:10.564Z,6.13
2018-09-12T14:12:39.370Z,6.50
2018-09-12T14:15:08.038Z,7.30
2018-09-12T14:17:37.916Z,8.10
2018-09-12T14:20:06.640Z,7.80
2018-09-12T14:22:41.991Z,7.80
2018-09-12T14:25:10.670Z,7.50
2018-09-12T14:27:39.315Z,8.00
2018-09-12T14:30:07.876Z,8.53
2018-09-12T14:32:36.503Z,7.50
2018-09-12T14:35:05.407Z,7.07
2018-09-12T14:37:34.073Z,7.80
2018-09-12T14:40:03.253Z,7.80
2018-09-12T14:42:31.995Z,6.90
2018-09-12T14:45:00.800Z,6.53
2018-09-12T14:47:29.352Z,7.50
2018-09-12T14:49:58.090Z,5.70
2018-09-12T14:52:26.670Z,5.10
2018-09-12T14:54:55.464Z,5.43
2018-09-12T14:57:24.121Z,5.13
2018-09-12T14:59:52.799Z,6.60
2018-09-12T15:02:21.513Z,6.20
2018-09-12T15:04:50.354Z,5.93
2018-09-12T15:07:19.212Z,5.60
2018-09-12T15:09:48.786Z,5.53
2018-09-12T15:12:17.399Z,5.57
2018-09-12T15:14:46.139Z,6.00
2018-09-12T15:17:14.784Z,5.73
2018-09-12T15:19:43.854Z,5.87
2018-09-12T15:22:12.539Z,5.67
2018-09-12T15:24:41.285Z,5.37
2018-09-12T15:27:09.968Z,5.70
2018-09-12T15:29:38.702Z,4.53
2018-09-12T15:32:08.158Z,5.00
2018-09-12T15:34:36.855Z,4.00
2018-09-12T15:37:05.758Z,4.50
2018-09-12T15:39:34.449Z,4.67
2018-09-12T15:42:03.254Z,5.43
2018-09-12T15:44:31.898Z,4.37
2018-09-12T15:47:00.591Z,4.43
2018-09-12T15:49:29.335Z,4.00
2018-09-12T15:51:58.018Z,3.90
2018-09-12T15:54:26.581Z,4.40
2018-09-12T15:56:55.261Z,4.50
2018-09-12T15:59:23.890Z,4.50
2018-09-12T16:01:52.560Z,4.80
2018-09-12T16:04:21.577Z,5.67
2018-09-12T16:06:50.362Z,6.33
2018-09-12T16:09:19.077Z,5.27
2018-09-12T16:11:47.714Z,4.87
2018-09-12T16:14:16.574Z,4.80
2018-09-12T16:16:45.988Z,4.90
2018-09-12T16:19:14.788Z,4.60
2018-09-12T16:21:43.615Z,5.17
2018-09-12T16:24:12.243Z,6.80
2018-09-12T16:26:40.878Z,5.47
2018-09-12T16:29:09.489Z,4.73
2018-09-12T16:31:38.149Z,4.00
2018-09-12T16:34:07.421Z,5.07
2018-09-12T16:36:36.124Z,4.87
2018-09-12T16:39:08.185Z,5.50
2018-09-12T16:41:36.927Z,5.17
2018-09-12T16:44:05.648Z,4.10
2018-09-12T16:46:34.360Z,6.60
2018-09-12T16:49:03.858Z,5.23
2018-09-12T16:51:33.071Z,5.40
2018-09-12T16:54:01.801Z,6.03
2018-09-12T16:56:30.946Z,5.13
2018-09-12T16:58:59.716Z,4.70
2018-09-12T17:01:28.382Z,6.47
2018-09-12T17:03:56.946Z,5.07
2018-09-12T17:06:26.728Z,5.53
2018-09-12T17:08:55.372Z,5.40
2018-09-12T17:11:24.155Z,5.10
2018-09-12T17:13:52.835Z,6.00
2018-09-12T17:16:21.528Z,6.00
2018-09-12T17:18:50.114Z,5.10
2018-09-12T17:21:18.747Z,4.50
2018-09-12T17:23:47.482Z,6.17
2018-09-12T17:26:16.080Z,6.70
2018-09-12T17:28:44.754Z,4.83
2018-09-12T17:31:13.385Z,6.40
2018-09-12T17:33:42.032Z,6.47
2018-09-12T17:36:10.749Z,5.40
2018-09-12T17:38:39.391Z,5.10
2018-09-12T17:41:08.453Z,6.70
2018-09-12T17:43:37.296Z,5.33
2018-09-12T17:46:06.179Z,5.43
2018-09-12T17:48:34.797Z,5.77
2018-09-12T17:51:03.527Z,6.30
2018-09-12T17:53:32.116Z,6.13
2018-09-12T17:56:00.767Z,5.53
2018-09-12T17:58:29.429Z,5.43
2018-09-12T18:00:58.140Z,4.00
2018-09-12T18:03:26.821Z,4.40
2018-09-12T18:05:55.521Z,4.53
2018-09-12T18:08:24.143Z,4.83
2018-09-12T18:10:52.966Z,4.23
2018-09-12T18:13:21.662Z,3.37
2018-09-12T18:15:51.243Z,3.70
2018-09-12T18:18:20.017Z,4.10
2018-09-12T18:20:48.595Z,3.60
2018-09-12T18:23:17.385Z,3.72
2018-09-12T18:25:46.026Z,3.27
2018-09-12T18:28:14.722Z,3.30
2018-09-12T18:30:43.563Z,3.33
2018-09-12T18:33:12.819Z,3.60
2018-09-12T18:35:41.518Z,3.50
2018-09-12T18:38:10.305Z,3.93
2018-09-12T18:40:38.965Z,4.40
2018-09-12T18:43:07.844Z,2.60
2018-09-12T18:45:36.473Z,3.97
2018-09-12T18:48:05.549Z,5.10
2018-09-12T18:50:34.233Z,3.20
2018-09-12T18:53:02.892Z,2.50
2018-09-12T18:55:31.491Z,3.40
2018-09-12T18:58:00.748Z,3.80
2018-09-12T19:00:29.522Z,2.60
2018-09-12T19:02:58.730Z,3.30
2018-09-12T19:05:27.363Z,3.23
2018-09-12T19:07:56.119Z,3.50
2018-09-12T19:10:24.862Z,4.40
2018-09-12T19:12:53.615Z,3.37
2018-09-12T19:15:22.251Z,2.60
2018-09-12T19:17:50.883Z,3.00
2018-09-12T19:20:19.522Z,3.87
2018-09-12T19:22:48.175Z,3.43
2018-09-12T19:25:16.963Z,4.07
2018-09-12T19:27:45.634Z,3.93
2018-09-12T19:30:14.427Z,3.67
2018-09-12T19:32:43.049Z,3.70
2018-09-12T19:35:11.665Z,3.60
2018-09-12T19:37:40.302Z,3.40
2018-09-12T19:40:09.024Z,3.63
2018-09-12T19:42:37.650Z,4.37
2018-09-12T19:45:06.803Z,3.67
2018-09-12T19:47:35.390Z,5.23
2018-09-12T19:50:04.131Z,4.80
2018-09-12T19:52:32.759Z,3.40
2018-09-12T19:55:01.291Z,3.97
2018-09-12T19:57:29.975Z,3.80
2018-09-12T19:59:58.656Z,4.23
2018-09-12T20:02:28.913Z,3.70
2018-09-12T20:04:58.387Z,5.30
2018-09-12T20:07:27.306Z,3.93
2018-09-12T20:09:56.045Z,3.83
2018-09-12T20:12:24.727Z,3.90
2018-09-12T20:14:53.826Z,3.50
2018-09-12T20:17:22.530Z,4.30
2018-09-12T20:19:51.385Z,4.10
2018-09-12T20:22:20.552Z,4.63
2018-09-12T20:24:49.491Z,3.93
2018-09-12T20:27:18.146Z,3.00
2018-09-12T20:29:47.188Z,3.53
2018-09-12T20:32:16.080Z,3.77
2018-09-12T20:34:45.027Z,2.90
2018-09-12T20:37:14.366Z,2.70
2018-09-12T20:39:43.048Z,3.07
2018-09-12T20:42:11.778Z,2.70
2018-09-12T20:44:40.668Z,3.20
2018-09-12T20:47:09.616Z,3.03
2018-09-12T20:49:38.211Z,3.23
2018-09-12T20:52:07.296Z,3.17
2018-09-12T20:54:36.185Z,3.27
2018-09-12T20:57:04.935Z,2.50
2018-09-12T20:59:33.828Z,2.70
2018-09-12T21:02:02.540Z,2.90
2018-09-12T21:04:31.243Z,2.70
2018-09-12T21:06:59.904Z,2.13
2018-09-12T21:09:28.663Z,2.07
2018-09-12T21:11:58.102Z,3.13
2018-09-12T21:14:26.703Z,3.10
2018-09-12T21:16:55.376Z,3.00
2018-09-12T21:19:24.287Z,2.77
2018-09-12T21:21:52.954Z,2.97
2018-09-12T21:24:21.853Z,3.30
2018-09-12T21:26:50.420Z,2.87
2018-09-12T21:29:19.025Z,2.60
2018-09-12T21:31:47.666Z,2.53
2018-09-12T21:34:16.365Z,2.23
2018-09-12T21:36:45.251Z,2.67
2018-09-12T21:39:14.102Z,2.60
2018-09-12T21:41:42.679Z,2.50
2018-09-12T21:44:11.453Z,2.87
2018-09-12T21:46:40.118Z,2.70
2018-09-12T21:49:08.669Z,2.70
2018-09-12T21:51:37.217Z,3.17
2018-09-12T21:54:05.870Z,3.63
2018-09-12T21:56:34.700Z,2.90
2018-09-12T21:59:03.325Z,3.60
2018-09-12T22:01:32.209Z,3.70
2018-09-12T22:04:00.799Z,3.23
2018-09-12T22:06:30.399Z,3.60
2018-09-12T22:08:59.073Z,3.20
2018-09-12T22:11:27.871Z,3.40
2018-09-12T22:13:56.561Z,3.30
2018-09-12T22:16:25.251Z,3.33
2018-09-12T22:18:53.901Z,3.97
2018-09-12T22:21:22.624Z,3.80
2018-09-12T22:23:51.265Z,3.63
2018-09-12T22:26:19.789Z,3.80
2018-09-12T22:28:48.502Z,4.07
2018-09-12T22:31:17.170Z,3.30
2018-09-12T22:33:45.845Z,3.33
2018-09-12T22:36:15.192Z,3.87
2018-09-12T22:38:43.977Z,4.67
2018-09-12T22:41:12.940Z,4.00
2018-09-12T22:43:41.712Z,3.20
2018-09-12T22:46:10.353Z,3.47
2018-09-12T22:48:39.109Z,2.90
2018-09-12T22:51:08.032Z,4.30
2018-09-12T22:53:36.880Z,3.83
2018-09-12T22:56:05.639Z,3.57
2018-09-12T22:58:34.354Z,5.23
2018-09-12T23:01:07.504Z,3.30
2018-09-12T23:03:36.199Z,3.70
2018-09-12T23:06:04.918Z,3.27
2018-09-12T23:08:33.801Z,3.57
2018-09-12T23:11:02.352Z,3.70
2018-09-12T23:13:31.007Z,3.63
2018-09-12T23:15:59.613Z,4.10
2018-09-12T23:18:28.230Z,3.33
2018-09-12T23:20:56.814Z,3.37
2018-09-12T23:23:25.508Z,3.67
2018-09-12T23:25:54.151Z,4.00
2018-09-12T23:28:22.725Z,3.87
2018-09-12T23:30:51.518Z,3.97
2018-09-12T23:33:20.306Z,4.10
2018-09-12T23:35:48.993Z,4.33
2018-09-12T23:38:17.646Z,4.40
2018-09-12T23:40:46.370Z,5.23
2018-09-12T23:43:15.213Z,4.10
2018-09-12T23:45:43.828Z,3.90
2018-09-12T23:48:12.598Z,4.33
2018-09-12T23:50:41.550Z,4.73
2018-09-12T23:53:10.172Z,3.97
2018-09-12T23:55:38.812Z,4.17
2018-09-12T23:58:07.398Z,4.67
